Time;durP1;ratioP1;P1;durP2;ratioP2;P2;SDS_P1;SDS_P2;PMS_P1;PMS_P2;Temp;Humidity;BMP_temperature;BMP_pressure;BME280_temperature;BME280_humidity;BME280_pressure;Samples;Min_cycle;Max_cycle;Signal;HPM_P1;HPM_P2
2022/08/23 00:00:33;;;;;;;7.15;6.40;;;17.00;99.90;;;;;;5062967;28;20520;-31
2022/08/23 00:02:59;;;;;;;7.57;6.72;;;17.00;99.90;;;;;;5051364;28;20035;-30
2022/08/23 00:05:25;;;;;;;7.63;6.65;;;17.00;99.90;;;;;;5063017;28;20036;-32
2022/08/23 00:07:51;;;;;;;8.50;7.28;;;17.00;99.90;;;;;;5067759;28;20032;-29
2022/08/23 00:10:17;;;;;;;8.15;7.03;;;17.00;99.90;;;;;;5055721;28;20035;-31
2022/08/23 00:12:45;;;;;;;8.57;6.65;;;16.90;99.90;;;;;;5060248;28;20033;-31
2022/08/23 00:15:13;;;;;;;7.22;6.53;;;16.90;99.90;;;;;;5048156;28;20141;-31
2022/08/23 00:17:41;;;;;;;7.90;6.57;;;16.80;99.90;;;;;;5071879;28;20040;-32
2022/08/23 00:20:10;;;;;;;8.82;6.95;;;16.90;99.90;;;;;;5055348;28;20068;-32
2022/08/23 00:22:38;;;;;;;8.32;7.53;;;16.80;99.90;;;;;;5071910;28;20083;-32
2022/08/23 00:25:07;;;;;;;10.13;7.18;;;16.80;99.90;;;;;;5061725;28;20125;-32
2022/08/23 00:27:34;;;;;;;7.18;6.40;;;16.80;99.90;;;;;;5054243;28;20041;-31
2022/08/23 00:30:01;;;;;;;9.93;7.50;;;16.70;99.90;;;;;;5059069;28;20406;-31
2022/08/23 00:32:31;;;;;;;8.43;7.32;;;16.70;99.90;;;;;;5072749;28;20037;-33
2022/08/23 00:34:59;;;;;;;8.55;7.47;;;16.70;99.90;;;;;;5054721;28;20096;-31
2022/08/23 00:37:28;;;;;;;8.60;7.45;;;16.70;99.90;;;;;;5045248;28;20036;-30
2022/08/23 00:39:54;;;;;;;10.52;8.80;;;16.70;99.90;;;;;;5053523;28;20075;-30
2022/08/23 00:48:28;;;;;;;10.25;8.10;;;16.60;99.90;;;;;;5065368;28;20537;-30
2022/08/23 00:51:07;;;;;;;8.82;7.88;;;16.60;99.90;;;;;;5070224;28;20024;-30
2022/08/23 00:53:37;;;;;;;10.57;8.68;;;16.60;99.90;;;;;;5069907;28;20075;-34
2022/08/23 00:56:07;;;;;;;10.38;8.68;;;16.60;99.90;;;;;;5059825;28;20036;-30
2022/08/23 00:58:34;;;;;;;9.18;7.75;;;16.50;99.90;;;;;;5064592;28;20040;-31
2022/08/23 01:01:01;;;;;;;10.98;8.55;;;16.50;99.90;;;;;;5070702;28;20048;-31
2022/08/23 01:03:30;;;;;;;8.43;7.45;;;16.50;99.90;;;;;;5070359;28;20047;-30
2022/08/23 01:06:18;;;;;;;12.02;8.52;;;16.50;99.90;;;;;;5036291;28;20043;-30
2022/08/23 01:08:52;;;;;;;11.40;8.82;;;16.50;99.90;;;;;;5055274;28;20097;-30
2022/08/23 01:11:25;;;;;;;9.73;8.77;;;16.40;99.90;;;;;;5059237;28;20045;-31
2022/08/23 01:14:10;;;;;;;12.15;8.85;;;16.40;99.90;;;;;;5067132;28;20036;-31
2022/08/23 01:16:44;;;;;;;11.18;8.63;;;16.40;99.90;;;;;;5051532;28;20098;-31
2022/08/23 01:19:24;;;;;;;13.13;9.70;;;16.40;99.90;;;;;;5067806;28;20067;-30
2022/08/23 01:22:08;;;;;;;11.02;9.23;;;16.30;99.90;;;;;;5068668;28;20075;-31
2022/08/23 01:24:34;;;;;;;10.80;8.50;;;16.30;99.90;;;;;;5050387;28;20040;-30
2022/08/23 01:27:00;;;;;;;11.57;10.23;;;16.30;99.90;;;;;;5051070;28;20074;-31
2022/08/23 01:29:26;;;;;;;11.93;9.88;;;16.30;99.90;;;;;;5066832;28;20068;-30
2022/08/23 01:31:52;;;;;;;10.25;9.13;;;16.20;99.90;;;;;;5056492;28;20267;-30
2022/08/23 01:34:26;;;;;;;13.43;11.00;;;16.20;99.90;;;;;;5033568;28;20033;-32
2022/08/23 01:36:52;;;;;;;10.88;9.88;;;16.20;99.90;;;;;;5049857;28;20037;-30
2022/08/23 01:39:18;;;;;;;13.30;9.50;;;16.20;99.90;;;;;;5068941;28;20106;-32
2022/08/23 01:41:44;;;;;;;12.75;10.05;;;16.10;99.90;;;;;;5069598;28;20048;-30
2022/08/23 01:44:12;;;;;;;11.23;10.13;;;16.20;99.90;;;;;;5069505;28;20488;-30
2022/08/23 01:46:38;;;;;;;10.68;9.43;;;16.10;99.90;;;;;;5069552;28;20041;-30
2022/08/23 01:49:05;;;;;;;12.13;10.82;;;16.10;99.90;;;;;;5069245;28;20280;-30
2022/08/23 01:51:31;;;;;;;10.98;9.88;;;16.10;99.90;;;;;;5052764;28;20093;-30
2022/08/23 01:53:57;;;;;;;11.70;9.95;;;16.10;99.90;;;;;;5052162;28;20078;-32
2022/08/23 01:56:23;;;;;;;11.50;10.27;;;16.00;99.90;;;;;;5051866;28;20076;-30
2022/08/23 01:58:50;;;;;;;11.75;9.82;;;16.00;99.90;;;;;;5064149;28;20494;-30
2022/08/23 02:01:16;;;;;;;12.82;11.57;;;16.00;99.90;;;;;;5066922;28;20045;-32
2022/08/23 02:03:42;;;;;;;12.07;10.57;;;16.00;99.90;;;;;;5069639;28;20116;-30
2022/08/23 02:06:08;;;;;;;12.10;10.70;;;16.00;99.90;;;;;;5051888;28;20127;-29
2022/08/23 02:11:21;;;;;;;12.48;11.18;;;15.90;99.90;;;;;;5070051;28;20128;-32
2022/08/23 02:13:48;;;;;;;13.50;10.25;;;15.90;99.90;;;;;;5050265;28;20127;-29
2022/08/23 02:16:22;;;;;;;13.80;11.05;;;15.90;99.90;;;;;;5067159;28;20045;-30
2022/08/23 02:18:49;;;;;;;11.20;9.43;;;15.90;99.90;;;;;;5067221;28;20040;-31
2022/08/23 02:21:15;;;;;;;13.45;11.05;;;15.90;99.90;;;;;;5054101;28;20082;-30
2022/08/23 02:23:41;;;;;;;13.70;12.00;;;15.80;99.90;;;;;;5067250;28;20068;-30
2022/08/23 02:26:06;;;;;;;12.32;10.48;;;15.80;99.90;;;;;;5051896;28;20036;-30
2022/08/23 02:28:32;;;;;;;11.73;10.52;;;15.80;99.90;;;;;;5067136;28;20575;-31
2022/08/23 02:30:58;;;;;;;14.63;11.30;;;15.80;99.90;;;;;;5068538;28;20647;-32
2022/08/23 02:33:24;;;;;;;12.68;11.40;;;15.70;99.90;;;;;;5049327;28;20044;-29
2022/08/23 02:35:50;;;;;;;11.98;10.75;;;15.70;99.90;;;;;;5046639;28;20047;-32
2022/08/23 02:38:17;;;;;;;11.45;10.32;;;15.70;99.90;;;;;;5068483;28;20052;-31
2022/08/23 02:40:43;;;;;;;12.38;10.82;;;15.70;99.90;;;;;;5067734;28;20036;-32
2022/08/23 02:43:09;;;;;;;12.40;11.20;;;15.60;99.90;;;;;;5070610;28;20378;-30
2022/08/23 02:45:35;;;;;;;11.13;9.98;;;15.60;99.90;;;;;;5048491;28;20041;-31
2022/08/23 02:48:02;;;;;;;11.95;10.02;;;15.60;99.90;;;;;;5068879;28;20409;-31
2022/08/23 02:50:28;;;;;;;13.38;10.85;;;15.60;99.90;;;;;;5068156;28;20463;-30
2022/08/23 02:52:54;;;;;;;11.73;10.48;;;15.60;99.90;;;;;;5052128;28;20043;-30
2022/08/23 02:55:20;;;;;;;12.30;11.07;;;15.60;99.90;;;;;;5034355;28;20433;-30
2022/08/23 02:57:46;;;;;;;12.93;10.70;;;15.50;99.90;;;;;;5050586;28;20748;-31
2022/08/23 03:00:14;;;;;;;13.02;11.73;;;15.50;99.90;;;;;;5067278;28;20127;-31
2022/08/23 03:02:41;;;;;;;12.98;11.38;;;15.50;99.90;;;;;;5067143;28;20310;-30
2022/08/23 03:05:08;;;;;;;13.27;11.90;;;15.50;99.90;;;;;;5066675;28;20029;-30
2022/08/23 03:07:34;;;;;;;13.35;12.02;;;15.50;99.90;;;;;;5060894;28;20068;-32
2022/08/23 03:10:00;;;;;;;12.32;11.02;;;15.50;99.90;;;;;;5034187;28;20408;-30
2022/08/23 03:12:26;;;;;;;13.13;11.82;;;15.50;99.90;;;;;;5060695;28;20408;-31
2022/08/23 03:14:52;;;;;;;14.63;11.85;;;15.40;99.90;;;;;;5067733;28;20082;-32
2022/08/23 03:17:19;;;;;;;12.38;11.07;;;15.40;99.90;;;;;;5051940;28;20529;-29
2022/08/23 03:19:45;;;;;;;15.18;11.45;;;15.40;99.90;;;;;;5067167;28;20064;-32
2022/08/23 03:22:10;;;;;;;12.80;11.52;;;15.30;99.90;;;;;;5068360;28;20493;-31
2022/08/23 03:24:37;;;;;;;12.05;10.88;;;15.30;99.90;;;;;;5045067;28;20044;-30
2022/08/23 03:27:04;;;;;;;14.82;13.23;;;15.30;99.90;;;;;;5051048;28;20037;-30
2022/08/23 03:29:30;;;;;;;13.73;12.27;;;15.30;99.90;;;;;;5063400;28;20295;-31
2022/08/23 03:31:57;;;;;;;17.15;13.20;;;15.30;99.90;;;;;;5066955;28;20043;-30
2022/08/23 03:34:23;;;;;;;13.90;12.50;;;15.30;99.90;;;;;;5051253;28;20113;-30
2022/08/23 03:36:48;;;;;;;13.70;12.27;;;15.30;99.90;;;;;;5062246;28;20470;-29
2022/08/23 03:39:15;;;;;;;16.98;15.27;;;15.30;99.90;;;;;;5068272;28;20064;-31
2022/08/23 03:41:41;;;;;;;13.52;12.23;;;15.20;99.90;;;;;;5051358;28;20110;-29
2022/08/23 03:44:07;;;;;;;15.02;13.32;;;15.20;99.90;;;;;;5051317;28;20076;-32
2022/08/23 03:46:33;;;;;;;14.88;13.45;;;15.20;99.90;;;;;;5067064;28;20572;-31
2022/08/23 03:49:01;;;;;;;16.70;14.43;;;15.20;99.90;;;;;;5066457;28;20040;-30
2022/08/23 03:51:29;;;;;;;15.70;14.15;;;15.20;99.90;;;;;;5057423;28;20116;-30
2022/08/23 03:53:54;;;;;;;16.15;13.63;;;15.20;99.90;;;;;;5066260;28;20037;-31
2022/08/23 03:56:28;;;;;;;15.35;13.82;;;15.20;99.90;;;;;;5038214;28;20402;-32
2022/08/23 03:58:54;;;;;;;;;;;15.10;99.90;;;;;;5055160;28;20044;-30
2022/08/23 04:01:20;;;;;;;15.45;13.98;;;15.10;99.90;;;;;;5047172;28;19982;-32
2022/08/23 04:03:47;;;;;;;16.45;14.27;;;15.10;99.90;;;;;;5070422;28;20072;-32
2022/08/23 04:06:13;;;;;;;14.52;13.07;;;15.10;99.90;;;;;;5059976;28;20048;-30
2022/08/23 04:08:39;;;;;;;16.73;13.20;;;15.10;99.90;;;;;;5070794;28;20040;-30
2022/08/23 04:11:05;;;;;;;18.67;14.77;;;15.10;99.90;;;;;;5056831;28;20112;-32
2022/08/23 04:13:31;;;;;;;16.90;15.27;;;15.10;99.90;;;;;;5053323;28;20044;-30
2022/08/23 04:15:57;;;;;;;16.10;14.48;;;15.00;99.90;;;;;;5054160;28;20523;-30
2022/08/23 04:18:23;;;;;;;17.30;15.50;;;15.00;99.90;;;;;;5052883;28;20043;-30
2022/08/23 04:20:50;;;;;;;16.30;14.63;;;15.00;99.90;;;;;;5049617;28;20383;-31
2022/08/23 04:23:16;;;;;;;17.17;14.32;;;15.00;99.90;;;;;;5071926;28;20056;-30
2022/08/23 04:25:44;;;;;;;15.95;14.40;;;15.00;99.90;;;;;;5050500;28;20131;-30
2022/08/23 04:28:10;;;;;;;17.30;15.70;;;15.00;99.90;;;;;;5055884;28;20458;-31
2022/08/23 04:30:37;;;;;;;17.80;14.68;;;15.00;99.90;;;;;;5049146;28;20044;-29
2022/08/23 04:33:04;;;;;;;16.77;15.02;;;15.00;99.90;;;;;;5065521;28;20029;-31
2022/08/23 04:35:29;;;;;;;16.95;14.98;;;15.00;99.90;;;;;;5055003;28;20154;-30
2022/08/23 04:37:55;;;;;;;17.88;16.08;;;15.00;99.90;;;;;;5052698;28;20037;-30
2022/08/23 04:43:07;;;;;;;17.15;15.45;;;14.90;99.90;;;;;;5071194;28;20169;-31
2022/08/23 04:45:36;;;;;;;15.77;13.52;;;14.90;99.90;;;;;;5071287;28;20527;-30
2022/08/23 04:48:02;;;;;;;16.30;14.68;;;14.90;99.90;;;;;;5065008;28;20542;-31
2022/08/23 04:50:28;;;;;;;16.42;14.93;;;15.00;99.90;;;;;;5072886;28;20130;-29
2022/08/23 04:52:54;;;;;;;15.65;14.05;;;15.00;99.90;;;;;;5053716;28;20060;-30
2022/08/23 04:55:19;;;;;;;16.83;15.07;;;15.00;99.90;;;;;;5066706;28;20037;-30
2022/08/23 04:57:45;;;;;;;17.70;15.32;;;15.00;99.90;;;;;;5053749;28;20051;-31
2022/08/23 05:00:13;;;;;;;18.15;16.15;;;15.00;99.90;;;;;;5052223;28;20063;-30
2022/08/23 05:02:38;;;;;;;17.70;15.82;;;15.00;99.90;;;;;;5069188;28;20409;-31
2022/08/23 05:05:05;;;;;;;19.42;16.88;;;15.10;99.90;;;;;;5049713;28;20111;-31
2022/08/23 05:07:32;;;;;;;18.17;16.27;;;15.10;99.90;;;;;;5054018;28;20486;-31
2022/08/23 05:09:58;;;;;;;19.48;17.70;;;15.10;99.90;;;;;;5054408;28;20036;-30
2022/08/23 05:12:23;;;;;;;19.58;17.48;;;15.10;99.90;;;;;;5054234;28;20035;-32
2022/08/23 05:14:49;;;;;;;19.20;17.13;;;15.10;99.90;;;;;;5070887;28;20063;-30
2022/08/23 05:17:15;;;;;;;17.88;16.13;;;15.20;99.90;;;;;;5053877;28;20037;-30
2022/08/23 05:19:41;;;;;;;18.55;16.63;;;15.20;99.90;;;;;;5039261;28;20375;-30
2022/08/23 05:22:07;;;;;;;19.38;17.48;;;15.20;99.90;;;;;;5059608;28;20033;-30
2022/08/23 05:24:32;;;;;;;18.60;16.70;;;15.20;99.90;;;;;;5050820;28;20417;-31
2022/08/23 05:26:58;;;;;;;20.30;18.25;;;15.30;99.90;;;;;;5057698;28;20405;-31
2022/08/23 05:29:24;;;;;;;19.20;17.50;;;15.30;99.90;;;;;;5058286;28;20482;-31
2022/08/23 05:31:50;;;;;;;20.38;17.48;;;15.30;99.90;;;;;;5054636;28;20067;-30
2022/08/23 05:34:17;;;;;;;20.13;18.08;;;15.40;99.90;;;;;;5054175;28;20116;-32
2022/08/23 05:36:43;;;;;;;20.20;18.33;;;15.50;99.90;;;;;;5047946;28;20072;-31
2022/08/23 05:39:09;;;;;;;18.55;16.88;;;15.50;99.90;;;;;;5071488;28;20075;-31
2022/08/23 05:41:35;;;;;;;17.90;16.17;;;15.60;99.90;;;;;;5054486;28;20048;-30
2022/08/23 05:44:01;;;;;;;17.95;16.25;;;15.60;99.90;;;;;;5072027;28;20139;-31
2022/08/23 05:46:28;;;;;;;19.27;17.48;;;15.70;99.90;;;;;;5072460;28;20048;-30
2022/08/23 05:48:53;;;;;;;19.17;17.48;;;15.70;99.90;;;;;;5055494;28;20066;-29
2022/08/23 05:51:26;;;;;;;18.48;16.80;;;15.80;99.90;;;;;;5054683;28;20037;-29
2022/08/23 05:53:54;;;;;;;18.20;16.30;;;15.90;99.90;;;;;;5058693;28;20044;-26
2022/08/23 05:56:22;;;;;;;18.02;16.15;;;15.90;99.90;;;;;;5072033;28;20036;-26
2022/08/23 05:58:50;;;;;;;21.52;19.50;;;16.00;99.90;;;;;;5070717;28;20044;-26
2022/08/23 06:01:17;;;;;;;20.88;18.88;;;16.00;99.90;;;;;;5041294;28;20040;-26
2022/08/23 06:03:43;;;;;;;20.23;18.40;;;16.10;99.90;;;;;;5046022;28;20040;-25
2022/08/23 06:06:15;;;;;;;20.58;18.58;;;16.20;99.90;;;;;;5051910;28;20116;-27
2022/08/23 06:08:47;;;;;;;18.95;17.05;;;16.20;99.90;;;;;;5065982;28;20040;-26
2022/08/23 06:11:22;;;;;;;18.83;17.02;;;16.30;99.90;;;;;;5050410;28;20032;-26
2022/08/23 06:13:52;;;;;;;19.02;17.02;;;16.40;99.90;;;;;;5044890;28;20032;-26
2022/08/23 06:16:21;;;;;;;20.02;17.98;;;16.50;99.90;;;;;;5051817;28;20032;-26
2022/08/23 06:18:47;;;;;;;19.65;17.77;;;16.70;99.90;;;;;;5069426;28;20120;-26
2022/08/23 06:21:14;;;;;;;18.15;16.48;;;16.80;99.90;;;;;;5052783;28;20032;-25
2022/08/23 06:23:41;;;;;;;19.00;17.20;;;16.90;99.90;;;;;;5052978;28;20037;-25
2022/08/23 06:26:44;;;;;;;20.10;18.30;;;17.00;99.90;;;;;;5060036;28;20055;-25
2022/08/23 06:29:13;;;;;;;19.70;17.05;;;17.10;99.90;;;;;;5048719;28;20051;-26
2022/08/23 06:31:44;;;;;;;19.92;18.08;;;17.20;99.90;;;;;;5051843;28;20072;-29
2022/08/23 06:34:19;;;;;;;19.30;17.40;;;17.30;99.90;;;;;;5051592;28;20036;-27
2022/08/23 06:36:47;;;;;;;19.08;17.40;;;17.50;99.90;;;;;;5068066;28;20526;-26
2022/08/23 06:39:15;;;;;;;20.25;18.15;;;17.70;99.90;;;;;;5051030;28;20131;-26
2022/08/23 06:41:41;;;;;;;20.35;18.58;;;17.90;99.90;;;;;;5053066;28;20047;-25
2022/08/23 06:44:08;;;;;;;21.17;19.25;;;18.00;99.90;;;;;;5069478;28;20090;-26
2022/08/23 06:46:35;;;;;;;20.45;18.45;;;18.20;99.90;;;;;;5052702;28;20049;-28
2022/08/23 06:49:04;;;;;;;18.08;16.58;;;18.40;99.90;;;;;;5069353;28;20409;-27
2022/08/23 06:51:35;;;;;;;17.92;16.33;;;18.50;99.90;;;;;;5031468;28;20037;-27
2022/08/23 06:54:04;;;;;;;18.83;17.00;;;18.70;99.90;;;;;;5057755;28;20045;-28
2022/08/23 06:56:30;;;;;;;20.35;18.50;;;18.80;99.90;;;;;;5064814;28;20132;-29
2022/08/23 06:58:56;;;;;;;18.55;16.65;;;19.00;99.90;;;;;;5038274;28;20124;-26
2022/08/23 07:01:44;;;;;;;18.92;17.42;;;19.10;99.90;;;;;;5067629;28;20036;-25
2022/08/23 07:04:12;;;;;;;16.88;15.30;;;19.10;99.90;;;;;;5068940;28;20040;-26
2022/08/23 07:06:39;;;;;;;17.65;15.82;;;19.20;99.90;;;;;;5054585;28;20040;-27
2022/08/23 07:09:06;;;;;;;17.30;15.90;;;19.30;99.90;;;;;;5066248;28;20036;-26
2022/08/23 07:11:32;;;;;;;17.48;15.88;;;19.30;99.90;;;;;;5069121;28;20094;-27
2022/08/23 07:14:01;;;;;;;17.55;15.77;;;19.40;99.90;;;;;;5052313;28;20118;-27
2022/08/23 07:16:36;;;;;;;15.45;14.05;;;19.40;99.90;;;;;;5062499;28;20382;-27
2022/08/23 07:19:02;;;;;;;16.48;15.02;;;19.50;99.90;;;;;;5040928;28;20032;-26
2022/08/23 07:21:28;;;;;;;15.30;13.85;;;19.70;99.90;;;;;;5060898;28;20040;-27
2022/08/23 07:23:54;;;;;;;13.93;12.63;;;19.80;99.90;;;;;;5052503;28;20036;-26
2022/08/23 07:26:22;;;;;;;12.98;11.63;;;20.00;99.90;;;;;;5056412;28;20123;-26
2022/08/23 07:28:48;;;;;;;13.70;12.40;;;20.20;99.90;;;;;;5056738;28;20375;-27
2022/08/23 07:31:21;;;;;;;13.35;12.10;;;20.40;99.90;;;;;;5074845;28;20058;-26
2022/08/23 07:33:47;;;;;;;12.15;11.15;;;20.70;99.90;;;;;;5056631;28;20547;-26
2022/08/23 07:36:18;;;;;;;12.90;11.70;;;20.90;99.90;;;;;;5073272;28;20040;-26
2022/08/23 07:38:45;;;;;;;12.13;10.93;;;21.10;99.90;;;;;;5079736;28;20040;-26
2022/08/23 07:41:11;;;;;;;12.07;11.02;;;21.30;99.90;;;;;;5063801;28;20158;-28
2022/08/23 07:43:38;;;;;;;13.07;10.52;;;21.50;99.90;;;;;;5056950;28;20509;-29
2022/08/23 07:46:05;;;;;;;11.32;10.30;;;21.70;99.90;;;;;;5057039;28;20067;-27
2022/08/23 07:48:32;;;;;;;11.15;10.00;;;21.90;99.90;;;;;;5056874;28;20617;-28
2022/08/23 07:51:01;;;;;;;10.68;9.60;;;22.00;99.90;;;;;;5056581;28;20052;-27
2022/08/23 07:53:27;;;;;;;10.60;9.60;;;22.10;99.90;;;;;;5056770;28;20357;-26
2022/08/23 07:55:53;;;;;;;10.63;9.57;;;22.40;99.90;;;;;;5057020;28;20052;-27
2022/08/23 07:58:20;;;;;;;9.82;9.00;;;22.70;99.90;;;;;;5057018;28;20036;-27
2022/08/23 08:00:46;;;;;;;10.63;9.20;;;23.00;99.90;;;;;;5056798;28;20033;-27
2022/08/23 08:03:13;;;;;;;10.98;9.27;;;23.20;99.90;;;;;;5074652;28;20044;-28
2022/08/23 08:05:40;;;;;;;10.10;9.10;;;23.50;99.90;;;;;;5056581;28;20051;-26
2022/08/23 08:08:07;;;;;;;9.32;8.45;;;23.60;99.90;;;;;;5056601;28;20390;-26
2022/08/23 08:10:37;;;;;;;10.13;9.10;;;23.80;99.90;;;;;;5056262;28;20050;-27
2022/08/23 08:13:04;;;;;;;10.30;9.40;;;24.00;99.90;;;;;;5056318;28;20048;-28
2022/08/23 08:15:30;;;;;;;10.18;9.23;;;24.10;99.90;;;;;;5056736;28;20041;-28
2022/08/23 08:17:56;;;;;;;9.30;8.10;;;24.30;99.90;;;;;;5056494;28;20048;-29
2022/08/23 08:20:22;;;;;;;8.95;8.15;;;24.60;99.90;;;;;;5074268;28;20516;-26
2022/08/23 08:22:49;;;;;;;9.27;8.38;;;24.70;99.90;;;;;;5056443;28;20040;-26
2022/08/23 08:25:15;;;;;;;9.82;8.93;;;25.00;99.90;;;;;;5055874;28;20048;-27
2022/08/23 08:27:41;;;;;;;9.85;8.95;;;25.20;99.90;;;;;;5056206;28;20036;-27
2022/08/23 08:30:09;;;;;;;9.35;8.48;;;25.40;99.90;;;;;;5056143;28;20063;-26
2022/08/23 08:32:35;;;;;;;9.95;8.95;;;25.60;99.90;;;;;;5056370;28;20534;-27
2022/08/23 08:35:01;;;;;;;9.63;8.63;;;25.60;99.90;;;;;;5055671;28;20045;-28
2022/08/23 08:37:28;;;;;;;10.25;9.02;;;25.70;99.90;;;;;;5055431;28;20505;-26
2022/08/23 08:39:53;;;;;;;11.35;9.88;;;25.50;99.90;;;;;;5072607;28;20041;-27
2022/08/23 08:42:50;;;;;;;9.70;8.65;;;25.40;99.90;;;;;;5072368;28;20174;-26
2022/08/23 08:45:28;;;;;;;11.35;8.93;;;25.30;99.90;;;;;;5072269;28;20040;-27
2022/08/23 08:48:12;;;;;;;9.88;9.05;;;25.50;99.90;;;;;;5072689;28;20028;-27
2022/08/23 08:50:40;;;;;;;9.63;7.78;;;25.70;99.90;;;;;;5072444;28;20094;-28
2022/08/23 08:53:21;;;;;;;11.73;9.55;;;25.70;99.90;;;;;;5072687;28;20577;-27
2022/08/23 08:55:52;;;;;;;9.95;9.05;;;26.10;99.90;;;;;;5072267;28;20046;-28
2022/08/23 08:58:35;;;;;;;9.07;8.27;;;26.50;99.90;;;;;;5072116;28;20048;-27
2022/08/23 09:01:01;;;;;;;8.70;7.82;;;26.80;99.90;;;;;;5072579;28;20101;-28
2022/08/23 09:03:32;;;;;;;9.05;8.18;;;27.20;99.90;;;;;;5072402;28;20044;-28
2022/08/23 09:06:13;;;;;;;9.98;9.00;;;27.50;99.20;;;;;;5072261;28;20389;-28
2022/08/23 09:09:13;;;;;;;8.85;7.70;;;27.90;84.90;;;;;;5055259;28;20123;-29
2022/08/23 09:12:17;;;;;;;7.70;6.65;;;28.30;95.00;;;;;;5055719;28;20394;-28
2022/08/23 09:15:03;;;;;;;8.85;6.38;;;28.40;93.30;;;;;;5072941;28;20038;-28
2022/08/23 09:17:37;;;;;;;7.90;7.15;;;28.20;94.60;;;;;;5041055;28;20174;-28
2022/08/23 09:20:12;;;;;;;7.63;6.28;;;28.00;90.90;;;;;;5055014;28;20040;-27
2022/08/23 09:22:41;;;;;;;8.15;6.72;;;27.90;94.60;;;;;;5071777;28;20044;-29
2022/08/23 09:25:10;;;;;;;7.30;6.03;;;27.80;96.50;;;;;;5071736;28;20509;-27
2022/08/23 09:27:37;;;;;;;8.45;7.75;;;27.90;96.50;;;;;;5071483;28;20036;-27
2022/08/23 09:30:05;;;;;;;8.05;6.53;;;28.10;93.70;;;;;;5072120;28;20067;-27
2022/08/23 09:32:34;;;;;;;7.85;7.13;;;28.30;93.00;;;;;;5071817;28;20040;-29
2022/08/23 09:35:06;;;;;;;9.05;8.07;;;28.60;84.10;;;;;;5071555;28;20037;-28
2022/08/23 09:38:05;;;;;;;10.47;7.23;;;28.80;70.80;;;;;;5051453;28;20048;-28
2022/08/23 09:40:31;;;;;;;7.38;6.68;;;29.10;74.10;;;;;;5024631;28;20045;-28
2022/08/23 09:43:12;;;;;;;9.32;7.28;;;29.30;84.80;;;;;;5051226;28;20041;-28
2022/08/23 09:45:54;;;;;;;8.07;5.85;;;29.40;82.40;;;;;;5051114;28;20045;-29
2022/08/23 09:48:39;;;;;;;8.02;6.88;;;29.70;78.60;;;;;;5050607;28;20083;-27
2022/08/23 09:51:26;;;;;;;6.20;5.63;;;30.00;63.20;;;;;;5051572;28;20483;-28
2022/08/23 09:54:26;;;;;;;6.80;6.20;;;30.30;78.00;;;;;;5051626;28;20036;-29
2022/08/23 09:56:59;;;;;;;6.38;5.53;;;30.30;60.30;;;;;;5051438;28;20052;-28
2022/08/23 09:59:25;;;;;;;6.60;5.45;;;30.20;63.80;;;;;;5051283;28;20044;-28
2022/08/23 10:01:54;;;;;;;6.57;5.45;;;30.30;65.50;;;;;;5051382;28;20052;-26
2022/08/23 10:04:29;;;;;;;6.45;4.25;;;30.50;63.40;;;;;;5050977;28;20451;-26
2022/08/23 10:06:56;;;;;;;6.30;4.30;;;30.80;59.90;;;;;;5051250;28;20044;-26
2022/08/23 10:09:31;;;;;;;5.43;3.60;;;31.20;57.90;;;;;;5051238;28;20033;-27
2022/08/23 10:11:59;;;;;;;5.50;4.20;;;31.50;58.00;;;;;;5050896;28;20040;-26
2022/08/23 10:14:28;;;;;;;4.70;3.70;;;31.60;57.70;;;;;;5033993;28;20041;-27
2022/08/23 10:17:06;;;;;;;6.38;3.40;;;31.80;57.10;;;;;;5051250;28;20037;-27
2022/08/23 10:20:02;;;;;;;7.15;3.45;;;32.10;50.90;;;;;;5051154;28;20032;-27
2022/08/23 10:22:43;;;;;;;5.45;4.30;;;32.00;52.40;;;;;;5051079;28;20502;-27
2022/08/23 10:25:21;;;;;;;7.40;4.88;;;32.00;49.60;;;;;;5050964;28;20461;-27
2022/08/23 10:30:58;;;;;;;4.30;3.90;;;31.60;49.40;;;;;;5052130;28;20041;-27
2022/08/23 10:33:39;;;;;;;5.47;3.63;;;31.50;50.10;;;;;;5051084;28;20033;-27
2022/08/23 10:36:09;;;;;;;3.97;3.40;;;31.60;51.40;;;;;;5050602;28;20045;-27
2022/08/23 10:38:41;;;;;;;5.72;2.90;;;32.10;52.10;;;;;;5064861;28;20040;-27
2022/08/23 10:41:34;;;;;;;6.15;3.90;;;32.40;50.70;;;;;;5053973;28;20044;-27
2022/08/23 10:44:17;;;;;;;3.85;3.38;;;32.30;48.30;;;;;;5054158;28;20494;-28
2022/08/23 10:47:03;;;;;;;4.72;3.70;;;32.60;50.20;;;;;;5072298;28;20119;-27
2022/08/23 10:49:32;;;;;;;4.00;3.60;;;32.70;49.10;;;;;;5070761;28;20036;-26
2022/08/23 10:52:00;;;;;;;5.72;3.42;;;32.90;47.90;;;;;;5070854;28;20043;-28
2022/08/23 10:54:48;;;;;;;4.57;3.47;;;32.50;46.60;;;;;;5070534;28;20505;-27
2022/08/23 10:57:16;;;;;;;4.90;3.53;;;32.50;48.00;;;;;;5070545;28;20412;-27
2022/08/23 10:59:45;;;;;;;6.53;4.13;;;32.40;50.20;;;;;;5070058;28;20044;-27
2022/08/23 11:02:36;;;;;;;5.07;2.95;;;32.60;48.40;;;;;;5070558;28;20047;-27
2022/08/23 11:05:19;;;;;;;4.25;3.05;;;32.80;46.80;;;;;;5070512;28;20501;-27
2022/08/23 11:07:57;;;;;;;6.97;3.35;;;32.90;46.00;;;;;;5070521;28;20363;-27
2022/08/23 11:10:33;;;;;;;7.65;3.75;;;33.30;46.00;;;;;;5070407;28;20040;-26
2022/08/23 11:13:23;;;;;;;4.85;2.85;;;33.20;45.40;;;;;;5053773;28;20036;-27
2022/08/23 11:15:54;;;;;;;4.18;2.75;;;33.50;45.80;;;;;;5053033;28;20051;-32
2022/08/23 11:18:32;;;;;;;5.15;2.90;;;33.90;44.60;;;;;;5053753;28;20598;-27
2022/08/23 11:21:24;;;;;;;3.30;2.80;;;34.40;43.20;;;;;;5071353;28;20394;-27
2022/08/23 11:23:54;;;;;;;5.88;2.92;;;34.30;43.30;;;;;;5007064;28;20130;-28
2022/08/23 11:26:26;;;;;;;5.95;3.10;;;34.30;45.10;;;;;;5053698;28;20398;-27
2022/08/23 11:28:59;;;;;;;4.40;2.72;;;34.40;43.60;;;;;;5053142;28;20138;-29
2022/08/23 11:31:46;;;;;;;3.30;2.78;;;34.60;44.00;;;;;;5053449;28;20116;-27
2022/08/23 11:34:26;;;;;;;5.63;3.15;;;34.50;41.10;;;;;;5053242;28;20051;-27
2022/08/23 11:37:20;;;;;;;4.63;2.80;;;34.60;44.10;;;;;;5053622;28;20048;-27
2022/08/23 11:39:58;;;;;;;6.80;3.83;;;34.80;41.60;;;;;;5052872;28;20080;-27
2022/08/23 11:42:54;;;;;;;5.53;3.20;;;34.50;41.10;;;;;;5053129;28;20037;-28
2022/08/23 11:45:22;;;;;;;4.03;3.35;;;34.00;41.60;;;;;;5051789;28;20506;-27
2022/08/23 11:48:11;;;;;;;4.32;3.00;;;33.70;41.90;;;;;;5036853;28;20479;-26
2022/08/23 11:50:42;;;;;;;5.07;3.00;;;33.40;41.80;;;;;;5052366;28;20114;-27
2022/08/23 11:53:21;;;;;;;3.30;3.00;;;33.80;43.30;;;;;;5052589;28;20040;-27
2022/08/23 11:56:11;;;;;;;3.58;2.60;;;34.10;43.30;;;;;;5053343;28;20098;-27
2022/08/23 11:59:15;;;;;;;3.72;2.83;;;34.70;43.40;;;;;;5053528;28;20082;-27
2022/08/23 12:01:43;;;;;;;5.30;3.00;;;35.60;41.80;;;;;;5053624;28;20068;-26
2022/08/23 12:04:34;;;;;;;3.35;3.03;;;35.30;41.40;;;;;;5069881;28;20420;-26
2022/08/23 12:07:02;;;;;;;3.58;2.75;;;35.10;40.80;;;;;;5069929;28;20044;-27
2022/08/23 12:09:28;;;;;;;5.85;2.85;;;35.30;42.70;;;;;;5069949;28;20097;-27
2022/08/23 12:11:54;;;;;;;4.72;3.20;;;35.20;41.40;;;;;;5054350;28;20545;-28
2022/08/23 12:14:42;;;;;;;3.85;2.92;;;35.30;41.00;;;;;;5056927;28;20494;-27
2022/08/23 12:17:17;;;;;;;3.38;2.60;;;35.80;41.10;;;;;;5057459;28;20401;-27
2022/08/23 12:19:52;;;;;;;4.32;2.55;;;36.00;41.00;;;;;;5056428;28;20063;-27
2022/08/23 12:22:24;;;;;;;3.40;3.00;;;36.20;39.20;;;;;;5073379;28;20044;-27
2022/08/23 12:24:52;;;;;;;4.10;2.75;;;36.20;37.80;;;;;;5074218;28;20051;-26
2022/08/23 12:27:17;;;;;;;3.70;2.80;;;36.40;38.10;;;;;;5056268;28;20044;-27
2022/08/23 12:29:48;;;;;;;3.78;2.88;;;36.50;38.10;;;;;;5056415;28;20197;-27
2022/08/23 12:32:23;;;;;;;4.18;2.53;;;36.50;37.90;;;;;;5056350;28;20037;-26
2022/08/23 12:34:58;;;;;;;4.93;2.75;;;36.50;38.20;;;;;;5056308;28;20490;-27
2022/08/23 12:37:23;;;;;;;4.10;2.70;;;36.20;37.20;;;;;;5056542;28;20091;-27
2022/08/23 12:39:53;;;;;;;4.15;2.70;;;35.90;38.00;;;;;;5056814;28;20547;-27
2022/08/23 12:42:40;;;;;;;3.55;2.80;;;36.10;39.00;;;;;;5072799;28;20040;-28
2022/08/23 12:45:19;;;;;;;5.10;3.08;;;36.60;37.20;;;;;;5039252;28;20499;-26
2022/08/23 12:47:57;;;;;;;4.03;3.10;;;36.80;37.10;;;;;;5072775;28;20478;-27
2022/08/23 12:50:29;;;;;;;4.57;2.92;;;36.60;38.10;;;;;;5072307;28;20087;-26
2022/08/23 12:53:05;;;;;;;4.82;2.70;;;36.40;38.30;;;;;;5072530;28;20037;-27
2022/08/23 12:55:36;;;;;;;3.95;2.70;;;36.20;37.60;;;;;;5072403;28;20067;-27
2022/08/23 12:58:03;;;;;;;4.87;2.83;;;35.80;38.10;;;;;;5072734;28;20390;-27
2022/08/23 13:00:31;;;;;;;3.40;2.72;;;35.30;38.10;;;;;;5072242;28;20075;-27
2022/08/23 13:03:00;;;;;;;3.60;2.40;;;34.90;39.00;;;;;;5055718;28;20529;-26
2022/08/23 13:05:25;;;;;;;3.70;2.60;;;34.60;41.10;;;;;;5055412;28;20062;-28
2022/08/23 13:07:52;;;;;;;4.72;2.70;;;34.40;41.60;;;;;;5052109;28;20119;-26